sensor_id;sensor_type;location;lat;lon;timestamp;P1;durP1;ratioP1;P2;durP2;ratioP2
3971;SDS011;2000;47.572;14.202;2023-12-07T00:01:12;1.60;;;1.50;;
3971;SDS011;2000;47.572;14.202;2023-12-07T00:03:39;3.77;;;0.60;;
3971;SDS011;2000;47.572;14.202;2023-12-07T00:06:06;0.97;;;0.80;;
3971;SDS011;2000;47.572;14.202;2023-12-07T00:08:34;0.70;;;0.60;;
3971;SDS011;2000;47.572;14.202;2023-12-07T00:11:00;0.50;;;0.50;;
3971;SDS011;2000;47.572;14.202;2023-12-07T00:13:27;0.53;;;0.53;;
3971;SDS011;2000;47.572;14.202;2023-12-07T00:15:54;1.00;;;0.60;;
3971;SDS011;2000;47.572;14.202;2023-12-07T00:18:21;1.37;;;0.67;;
3971;SDS011;2000;47.572;14.202;2023-12-07T00:20:48;1.13;;;0.50;;
3971;SDS011;2000;47.572;14.202;2023-12-07T00:23:15;0.70;;;0.60;;
3971;SDS011;2000;47.572;14.202;2023-12-07T00:25:42;0.50;;;0.50;;
3971;SDS011;2000;47.572;14.202;2023-12-07T00:28:09;0.40;;;0.40;;
3971;SDS011;2000;47.572;14.202;2023-12-07T00:30:37;0.80;;;0.80;;
3971;SDS011;2000;47.572;14.202;2023-12-07T00:33:03;0.77;;;0.40;;
3971;SDS011;2000;47.572;14.202;2023-12-07T00:35:31;0.57;;;0.40;;
3971;SDS011;2000;47.572;14.202;2023-12-07T00:37:58;1.43;;;1.00;;
3971;SDS011;2000;47.572;14.202;2023-12-07T00:40:25;0.63;;;0.50;;
3971;SDS011;2000;47.572;14.202;2023-12-07T00:42:52;1.60;;;0.53;;
3971;SDS011;2000;47.572;14.202;2023-12-07T00:45:19;0.60;;;0.60;;
3971;SDS011;2000;47.572;14.202;2023-12-07T00:47:46;0.63;;;0.63;;
3971;SDS011;2000;47.572;14.202;2023-12-07T00:50:13;0.33;;;0.33;;
3971;SDS011;2000;47.572;14.202;2023-12-07T00:52:41;0.53;;;0.53;;
3971;SDS011;2000;47.572;14.202;2023-12-07T00:55:08;0.53;;;0.53;;
3971;SDS011;2000;47.572;14.202;2023-12-07T00:57:38;0.60;;;0.60;;
3971;SDS011;2000;47.572;14.202;2023-12-07T01:00:05;0.57;;;0.50;;
3971;SDS011;2000;47.572;14.202;2023-12-07T01:02:33;0.60;;;0.60;;
3971;SDS011;2000;47.572;14.202;2023-12-07T01:05:00;0.73;;;0.67;;
3971;SDS011;2000;47.572;14.202;2023-12-07T01:07:27;0.93;;;0.70;;
3971;SDS011;2000;47.572;14.202;2023-12-07T01:09:54;0.53;;;0.50;;
3971;SDS011;2000;47.572;14.202;2023-12-07T01:12:21;1.20;;;0.90;;
3971;SDS011;2000;47.572;14.202;2023-12-07T01:14:49;1.07;;;0.60;;
3971;SDS011;2000;47.572;14.202;2023-12-07T01:17:16;0.60;;;0.60;;
3971;SDS011;2000;47.572;14.202;2023-12-07T01:19:43;0.70;;;0.40;;
3971;SDS011;2000;47.572;14.202;2023-12-07T01:22:10;1.07;;;0.80;;
3971;SDS011;2000;47.572;14.202;2023-12-07T01:24:37;0.90;;;0.43;;
3971;SDS011;2000;47.572;14.202;2023-12-07T01:27:04;0.50;;;0.50;;
3971;SDS011;2000;47.572;14.202;2023-12-07T01:29:31;0.77;;;0.47;;
3971;SDS011;2000;47.572;14.202;2023-12-07T01:31:58;5.00;;;0.80;;
3971;SDS011;2000;47.572;14.202;2023-12-07T01:34:24;1.00;;;0.90;;
3971;SDS011;2000;47.572;14.202;2023-12-07T01:36:52;0.97;;;0.87;;
3971;SDS011;2000;47.572;14.202;2023-12-07T01:39:19;1.07;;;0.80;;
3971;SDS011;2000;47.572;14.202;2023-12-07T01:41:46;0.90;;;0.70;;
3971;SDS011;2000;47.572;14.202;2023-12-07T01:44:13;0.80;;;0.60;;
3971;SDS011;2000;47.572;14.202;2023-12-07T01:46:39;1.67;;;0.93;;
3971;SDS011;2000;47.572;14.202;2023-12-07T01:49:07;0.80;;;0.60;;
3971;SDS011;2000;47.572;14.202;2023-12-07T01:51:35;0.80;;;0.80;;
3971;SDS011;2000;47.572;14.202;2023-12-07T01:54:02;1.10;;;1.10;;
3971;SDS011;2000;47.572;14.202;2023-12-07T01:56:29;1.10;;;1.00;;
3971;SDS011;2000;47.572;14.202;2023-12-07T01:58:57;1.60;;;1.47;;
3971;SDS011;2000;47.572;14.202;2023-12-07T02:01:24;0.70;;;0.70;;
3971;SDS011;2000;47.572;14.202;2023-12-07T02:03:51;1.10;;;0.73;;
3971;SDS011;2000;47.572;14.202;2023-12-07T02:06:18;0.93;;;0.80;;
3971;SDS011;2000;47.572;14.202;2023-12-07T02:08:45;1.27;;;0.87;;
3971;SDS011;2000;47.572;14.202;2023-12-07T02:11:12;1.60;;;0.90;;
3971;SDS011;2000;47.572;14.202;2023-12-07T02:13:39;0.97;;;0.80;;
3971;SDS011;2000;47.572;14.202;2023-12-07T02:16:08;0.63;;;0.63;;
3971;SDS011;2000;47.572;14.202;2023-12-07T02:21:47;0.73;;;0.70;;
3971;SDS011;2000;47.572;14.202;2023-12-07T02:24:20;1.00;;;0.60;;
3971;SDS011;2000;47.572;14.202;2023-12-07T02:26:51;1.57;;;0.97;;
3971;SDS011;2000;47.572;14.202;2023-12-07T02:29:18;0.87;;;0.70;;
3971;SDS011;2000;47.572;14.202;2023-12-07T02:31:45;1.67;;;1.23;;
3971;SDS011;2000;47.572;14.202;2023-12-07T02:34:12;1.00;;;0.90;;
3971;SDS011;2000;47.572;14.202;2023-12-07T02:36:39;1.37;;;1.27;;
3971;SDS011;2000;47.572;14.202;2023-12-07T02:39:06;0.90;;;0.90;;
3971;SDS011;2000;47.572;14.202;2023-12-07T02:41:35;2.53;;;0.60;;
3971;SDS011;2000;47.572;14.202;2023-12-07T02:44:03;1.20;;;1.07;;
3971;SDS011;2000;47.572;14.202;2023-12-07T02:46:30;1.60;;;1.50;;
3971;SDS011;2000;47.572;14.202;2023-12-07T02:48:57;1.37;;;1.20;;
3971;SDS011;2000;47.572;14.202;2023-12-07T02:51:25;0.83;;;0.80;;
3971;SDS011;2000;47.572;14.202;2023-12-07T02:53:52;1.50;;;1.40;;
3971;SDS011;2000;47.572;14.202;2023-12-07T02:56:19;1.60;;;1.50;;
3971;SDS011;2000;47.572;14.202;2023-12-07T02:58:46;1.10;;;1.00;;
3971;SDS011;2000;47.572;14.202;2023-12-07T03:01:13;1.50;;;1.40;;
3971;SDS011;2000;47.572;14.202;2023-12-07T03:03:39;1.90;;;1.50;;
3971;SDS011;2000;47.572;14.202;2023-12-07T03:06:08;1.23;;;1.13;;
3971;SDS011;2000;47.572;14.202;2023-12-07T03:08:35;2.50;;;1.83;;
3971;SDS011;2000;47.572;14.202;2023-12-07T03:11:02;4.87;;;1.70;;
3971;SDS011;2000;47.572;14.202;2023-12-07T03:13:29;2.60;;;1.90;;
3971;SDS011;2000;47.572;14.202;2023-12-07T03:15:56;1.87;;;1.47;;
3971;SDS011;2000;47.572;14.202;2023-12-07T03:18:24;1.70;;;1.30;;
3971;SDS011;2000;47.572;14.202;2023-12-07T03:20:51;1.57;;;1.47;;
3971;SDS011;2000;47.572;14.202;2023-12-07T03:23:18;1.90;;;1.43;;
3971;SDS011;2000;47.572;14.202;2023-12-07T03:25:45;1.50;;;1.40;;
3971;SDS011;2000;47.572;14.202;2023-12-07T03:28:12;1.77;;;1.53;;
3971;SDS011;2000;47.572;14.202;2023-12-07T03:30:39;1.33;;;1.23;;
3971;SDS011;2000;47.572;14.202;2023-12-07T03:33:06;1.53;;;1.43;;
3971;SDS011;2000;47.572;14.202;2023-12-07T03:35:33;2.20;;;2.00;;
3971;SDS011;2000;47.572;14.202;2023-12-07T03:38:00;2.50;;;1.70;;
3971;SDS011;2000;47.572;14.202;2023-12-07T03:40:27;2.60;;;1.93;;
3971;SDS011;2000;47.572;14.202;2023-12-07T03:42:54;3.20;;;2.23;;
3971;SDS011;2000;47.572;14.202;2023-12-07T03:45:23;1.60;;;1.27;;
3971;SDS011;2000;47.572;14.202;2023-12-07T03:47:50;1.40;;;1.30;;
3971;SDS011;2000;47.572;14.202;2023-12-07T03:50:17;1.53;;;1.43;;
3971;SDS011;2000;47.572;14.202;2023-12-07T03:52:44;1.07;;;0.97;;
3971;SDS011;2000;47.572;14.202;2023-12-07T03:55:11;1.13;;;1.03;;
3971;SDS011;2000;47.572;14.202;2023-12-07T03:57:38;3.73;;;2.30;;
3971;SDS011;2000;47.572;14.202;2023-12-07T04:00:05;1.93;;;1.73;;
3971;SDS011;2000;47.572;14.202;2023-12-07T04:02:34;2.23;;;2.10;;
3971;SDS011;2000;47.572;14.202;2023-12-07T04:05:01;3.93;;;1.73;;
3971;SDS011;2000;47.572;14.202;2023-12-07T04:07:29;4.47;;;1.93;;
3971;SDS011;2000;47.572;14.202;2023-12-07T04:09:59;3.13;;;1.57;;
3971;SDS011;2000;47.572;14.202;2023-12-07T04:12:26;2.60;;;1.60;;
3971;SDS011;2000;47.572;14.202;2023-12-07T04:14:53;2.93;;;2.10;;
3971;SDS011;2000;47.572;14.202;2023-12-07T04:17:20;4.07;;;1.70;;
3971;SDS011;2000;47.572;14.202;2023-12-07T04:19:48;2.10;;;1.43;;
3971;SDS011;2000;47.572;14.202;2023-12-07T04:22:15;3.27;;;2.43;;
3971;SDS011;2000;47.572;14.202;2023-12-07T04:24:42;2.97;;;2.10;;
3971;SDS011;2000;47.572;14.202;2023-12-07T04:27:09;3.30;;;2.23;;
3971;SDS011;2000;47.572;14.202;2023-12-07T04:29:36;2.20;;;2.00;;
3971;SDS011;2000;47.572;14.202;2023-12-07T04:32:03;3.33;;;2.00;;
3971;SDS011;2000;47.572;14.202;2023-12-07T04:34:30;2.17;;;1.97;;
3971;SDS011;2000;47.572;14.202;2023-12-07T04:36:57;2.67;;;1.77;;
3971;SDS011;2000;47.572;14.202;2023-12-07T04:39:24;2.10;;;1.90;;
3971;SDS011;2000;47.572;14.202;2023-12-07T04:41:51;2.07;;;1.93;;
3971;SDS011;2000;47.572;14.202;2023-12-07T04:44:18;1.80;;;1.70;;
3971;SDS011;2000;47.572;14.202;2023-12-07T04:46:46;1.60;;;1.50;;
3971;SDS011;2000;47.572;14.202;2023-12-07T04:49:13;1.70;;;1.60;;
3971;SDS011;2000;47.572;14.202;2023-12-07T04:51:40;1.77;;;1.63;;
3971;SDS011;2000;47.572;14.202;2023-12-07T04:54:08;2.83;;;2.10;;
3971;SDS011;2000;47.572;14.202;2023-12-07T04:56:45;5.43;;;2.07;;
3971;SDS011;2000;47.572;14.202;2023-12-07T04:59:12;3.67;;;2.60;;
3971;SDS011;2000;47.572;14.202;2023-12-07T05:01:39;2.70;;;2.37;;
3971;SDS011;2000;47.572;14.202;2023-12-07T05:04:06;2.70;;;2.30;;
3971;SDS011;2000;47.572;14.202;2023-12-07T05:06:34;3.80;;;3.03;;
3971;SDS011;2000;47.572;14.202;2023-12-07T05:09:01;4.50;;;2.83;;
3971;SDS011;2000;47.572;14.202;2023-12-07T05:11:29;3.37;;;2.40;;
3971;SDS011;2000;47.572;14.202;2023-12-07T05:13:56;3.10;;;2.50;;
3971;SDS011;2000;47.572;14.202;2023-12-07T05:16:24;3.10;;;2.47;;
3971;SDS011;2000;47.572;14.202;2023-12-07T05:18:51;3.23;;;2.70;;
3971;SDS011;2000;47.572;14.202;2023-12-07T05:21:18;2.70;;;2.27;;
3971;SDS011;2000;47.572;14.202;2023-12-07T05:23:45;22.93;;;12.47;;
3971;SDS011;2000;47.572;14.202;2023-12-07T05:26:12;10.13;;;5.73;;
3971;SDS011;2000;47.572;14.202;2023-12-07T05:28:39;7.10;;;4.13;;
3971;SDS011;2000;47.572;14.202;2023-12-07T05:31:06;5.20;;;3.50;;
3971;SDS011;2000;47.572;14.202;2023-12-07T05:33:34;4.40;;;3.37;;
3971;SDS011;2000;47.572;14.202;2023-12-07T05:36:01;3.27;;;2.53;;
3971;SDS011;2000;47.572;14.202;2023-12-07T05:38:30;4.50;;;3.90;;
3971;SDS011;2000;47.572;14.202;2023-12-07T05:40:57;2.40;;;2.20;;
3971;SDS011;2000;47.572;14.202;2023-12-07T05:43:26;3.23;;;2.50;;
3971;SDS011;2000;47.572;14.202;2023-12-07T05:45:53;4.13;;;2.27;;
3971;SDS011;2000;47.572;14.202;2023-12-07T05:48:20;3.80;;;3.23;;
3971;SDS011;2000;47.572;14.202;2023-12-07T05:50:48;3.37;;;3.00;;
3971;SDS011;2000;47.572;14.202;2023-12-07T05:53:16;17.10;;;8.67;;
3971;SDS011;2000;47.572;14.202;2023-12-07T05:55:43;4.83;;;3.23;;
3971;SDS011;2000;47.572;14.202;2023-12-07T05:58:10;3.50;;;2.43;;
3971;SDS011;2000;47.572;14.202;2023-12-07T06:00:37;3.63;;;2.27;;
3971;SDS011;2000;47.572;14.202;2023-12-07T06:03:04;4.50;;;3.17;;
3971;SDS011;2000;47.572;14.202;2023-12-07T06:05:31;5.23;;;3.20;;
3971;SDS011;2000;47.572;14.202;2023-12-07T06:07:58;5.17;;;2.80;;
3971;SDS011;2000;47.572;14.202;2023-12-07T06:10:25;4.03;;;3.40;;
3971;SDS011;2000;47.572;14.202;2023-12-07T06:12:52;3.47;;;2.80;;
3971;SDS011;2000;47.572;14.202;2023-12-07T06:15:21;5.07;;;3.37;;
3971;SDS011;2000;47.572;14.202;2023-12-07T06:17:49;4.93;;;2.80;;
3971;SDS011;2000;47.572;14.202;2023-12-07T06:20:16;5.83;;;3.10;;
3971;SDS011;2000;47.572;14.202;2023-12-07T06:22:43;5.50;;;3.37;;
3971;SDS011;2000;47.572;14.202;2023-12-07T06:25:10;4.70;;;2.90;;
3971;SDS011;2000;47.572;14.202;2023-12-07T06:27:38;3.30;;;2.63;;
3971;SDS011;2000;47.572;14.202;2023-12-07T06:30:05;5.10;;;3.10;;
3971;SDS011;2000;47.572;14.202;2023-12-07T06:32:32;4.10;;;2.80;;
3971;SDS011;2000;47.572;14.202;2023-12-07T06:35:00;2.67;;;2.47;;
3971;SDS011;2000;47.572;14.202;2023-12-07T06:37:27;2.00;;;1.90;;
3971;SDS011;2000;47.572;14.202;2023-12-07T06:39:54;2.73;;;2.30;;
3971;SDS011;2000;47.572;14.202;2023-12-07T06:42:21;2.67;;;2.43;;
3971;SDS011;2000;47.572;14.202;2023-12-07T06:44:49;3.87;;;3.00;;
3971;SDS011;2000;47.572;14.202;2023-12-07T06:47:16;5.20;;;3.30;;
3971;SDS011;2000;47.572;14.202;2023-12-07T06:49:43;2.87;;;2.23;;
3971;SDS011;2000;47.572;14.202;2023-12-07T06:52:18;4.57;;;2.93;;
3971;SDS011;2000;47.572;14.202;2023-12-07T06:54:45;4.87;;;3.20;;
3971;SDS011;2000;47.572;14.202;2023-12-07T06:57:13;3.20;;;2.40;;
3971;SDS011;2000;47.572;14.202;2023-12-07T06:59:40;6.50;;;4.30;;
3971;SDS011;2000;47.572;14.202;2023-12-07T07:02:10;34.93;;;13.97;;
3971;SDS011;2000;47.572;14.202;2023-12-07T07:04:37;13.57;;;7.47;;
3971;SDS011;2000;47.572;14.202;2023-12-07T07:07:04;4.23;;;3.00;;
3971;SDS011;2000;47.572;14.202;2023-12-07T07:09:31;2.87;;;2.60;;
3971;SDS011;2000;47.572;14.202;2023-12-07T07:11:58;2.97;;;2.13;;
3971;SDS011;2000;47.572;14.202;2023-12-07T07:17:21;2.20;;;2.00;;
3971;SDS011;2000;47.572;14.202;2023-12-07T07:19:48;3.43;;;2.73;;
3971;SDS011;2000;47.572;14.202;2023-12-07T07:22:15;6.03;;;2.90;;
3971;SDS011;2000;47.572;14.202;2023-12-07T07:24:43;2.20;;;2.00;;
3971;SDS011;2000;47.572;14.202;2023-12-07T07:27:10;1.83;;;1.73;;
3971;SDS011;2000;47.572;14.202;2023-12-07T07:29:37;3.73;;;2.00;;
3971;SDS011;2000;47.572;14.202;2023-12-07T07:32:04;4.17;;;2.10;;
3971;SDS011;2000;47.572;14.202;2023-12-07T07:34:32;2.47;;;1.93;;
3971;SDS011;2000;47.572;14.202;2023-12-07T07:36:59;2.60;;;1.67;;
3971;SDS011;2000;47.572;14.202;2023-12-07T07:39:26;1.80;;;1.70;;
3971;SDS011;2000;47.572;14.202;2023-12-07T07:41:53;3.70;;;2.20;;
3971;SDS011;2000;47.572;14.202;2023-12-07T07:44:20;2.77;;;2.00;;
3971;SDS011;2000;47.572;14.202;2023-12-07T07:46:47;1.90;;;1.47;;
3971;SDS011;2000;47.572;14.202;2023-12-07T07:49:14;3.97;;;2.40;;
3971;SDS011;2000;47.572;14.202;2023-12-07T07:51:41;2.57;;;1.87;;
3971;SDS011;2000;47.572;14.202;2023-12-07T07:54:08;3.17;;;2.67;;
3971;SDS011;2000;47.572;14.202;2023-12-07T07:56:36;2.70;;;2.50;;
3971;SDS011;2000;47.572;14.202;2023-12-07T07:59:03;2.33;;;2.13;;
3971;SDS011;2000;47.572;14.202;2023-12-07T08:01:30;2.23;;;1.80;;
3971;SDS011;2000;47.572;14.202;2023-12-07T08:03:57;3.13;;;1.83;;
3971;SDS011;2000;47.572;14.202;2023-12-07T08:06:24;2.27;;;1.90;;
3971;SDS011;2000;47.572;14.202;2023-12-07T08:08:51;1.87;;;1.40;;
3971;SDS011;2000;47.572;14.202;2023-12-07T08:11:18;1.40;;;1.30;;
3971;SDS011;2000;47.572;14.202;2023-12-07T08:13:46;2.20;;;1.50;;
3971;SDS011;2000;47.572;14.202;2023-12-07T08:16:13;3.00;;;1.70;;
3971;SDS011;2000;47.572;14.202;2023-12-07T08:18:40;2.80;;;2.00;;
3971;SDS011;2000;47.572;14.202;2023-12-07T08:21:07;2.30;;;1.83;;
3971;SDS011;2000;47.572;14.202;2023-12-07T08:23:35;1.53;;;1.40;;
3971;SDS011;2000;47.572;14.202;2023-12-07T08:26:02;1.80;;;1.70;;
3971;SDS011;2000;47.572;14.202;2023-12-07T08:28:29;3.00;;;2.03;;
3971;SDS011;2000;47.572;14.202;2023-12-07T08:30:56;1.90;;;1.70;;
3971;SDS011;2000;47.572;14.202;2023-12-07T08:33:24;2.80;;;2.30;;
3971;SDS011;2000;47.572;14.202;2023-12-07T08:35:51;3.10;;;1.97;;
3971;SDS011;2000;47.572;14.202;2023-12-07T08:38:21;3.00;;;1.90;;
3971;SDS011;2000;47.572;14.202;2023-12-07T08:40:49;1.63;;;1.53;;
3971;SDS011;2000;47.572;14.202;2023-12-07T08:43:16;2.97;;;2.13;;
3971;SDS011;2000;47.572;14.202;2023-12-07T08:45:46;3.17;;;2.13;;
3971;SDS011;2000;47.572;14.202;2023-12-07T08:48:13;2.40;;;2.10;;
3971;SDS011;2000;47.572;14.202;2023-12-07T08:50:40;1.77;;;1.63;;
3971;SDS011;2000;47.572;14.202;2023-12-07T08:53:07;2.90;;;1.83;;
3971;SDS011;2000;47.572;14.202;2023-12-07T08:55:34;3.03;;;2.30;;
3971;SDS011;2000;47.572;14.202;2023-12-07T08:58:01;7.60;;;2.83;;
3971;SDS011;2000;47.572;14.202;2023-12-07T09:00:31;3.80;;;1.40;;
3971;SDS011;2000;47.572;14.202;2023-12-07T09:02:59;2.20;;;1.57;;
3971;SDS011;2000;47.572;14.202;2023-12-07T09:05:26;2.27;;;2.07;;
3971;SDS011;2000;47.572;14.202;2023-12-07T09:07:53;10.77;;;1.63;;
3971;SDS011;2000;47.572;14.202;2023-12-07T09:10:20;2.43;;;1.63;;
3971;SDS011;2000;47.572;14.202;2023-12-07T09:12:48;4.70;;;2.30;;
3971;SDS011;2000;47.572;14.202;2023-12-07T09:15:15;2.50;;;1.83;;
3971;SDS011;2000;47.572;14.202;2023-12-07T09:17:42;2.87;;;2.07;;
3971;SDS011;2000;47.572;14.202;2023-12-07T09:20:10;2.70;;;1.50;;
3971;SDS011;2000;47.572;14.202;2023-12-07T09:22:41;2.37;;;2.00;;
3971;SDS011;2000;47.572;14.202;2023-12-07T09:25:10;4.33;;;2.10;;
3971;SDS011;2000;47.572;14.202;2023-12-07T09:27:40;4.50;;;2.70;;
3971;SDS011;2000;47.572;14.202;2023-12-07T09:30:08;5.10;;;2.67;;
3971;SDS011;2000;47.572;14.202;2023-12-07T09:32:41;8.73;;;2.70;;
3971;SDS011;2000;47.572;14.202;2023-12-07T09:35:11;2.87;;;2.60;;
3971;SDS011;2000;47.572;14.202;2023-12-07T09:37:46;5.20;;;2.37;;
3971;SDS011;2000;47.572;14.202;2023-12-07T09:40:16;3.10;;;1.97;;
3971;SDS011;2000;47.572;14.202;2023-12-07T09:42:46;4.77;;;1.57;;
3971;SDS011;2000;47.572;14.202;2023-12-07T09:45:13;2.60;;;1.90;;
3971;SDS011;2000;47.572;14.202;2023-12-07T09:47:43;3.30;;;2.03;;
3971;SDS011;2000;47.572;14.202;2023-12-07T09:50:18;1.90;;;1.80;;
3971;SDS011;2000;47.572;14.202;2023-12-07T09:52:52;3.53;;;2.97;;
3971;SDS011;2000;47.572;14.202;2023-12-07T09:55:33;9.60;;;2.83;;
3971;SDS011;2000;47.572;14.202;2023-12-07T09:58:05;3.77;;;1.83;;
3971;SDS011;2000;47.572;14.202;2023-12-07T10:00:35;3.13;;;1.60;;
3971;SDS011;2000;47.572;14.202;2023-12-07T10:03:03;5.97;;;1.57;;
3971;SDS011;2000;47.572;14.202;2023-12-07T10:05:31;1.87;;;1.30;;
3971;SDS011;2000;47.572;14.202;2023-12-07T10:07:58;1.67;;;1.10;;
3971;SDS011;2000;47.572;14.202;2023-12-07T10:10:25;4.80;;;3.00;;
3971;SDS011;2000;47.572;14.202;2023-12-07T10:15:21;4.57;;;2.60;;
3971;SDS011;2000;47.572;14.202;2023-12-07T10:17:56;2.20;;;2.07;;
3971;SDS011;2000;47.572;14.202;2023-12-07T10:20:24;2.17;;;1.40;;
3971;SDS011;2000;47.572;14.202;2023-12-07T10:23:03;3.83;;;1.60;;
3971;SDS011;2000;47.572;14.202;2023-12-07T10:25:32;2.10;;;1.70;;
3971;SDS011;2000;47.572;14.202;2023-12-07T10:28:03;2.27;;;1.90;;
3971;SDS011;2000;47.572;14.202;2023-12-07T10:30:34;2.10;;;2.00;;
3971;SDS011;2000;47.572;14.202;2023-12-07T10:33:05;5.50;;;2.20;;
3971;SDS011;2000;47.572;14.202;2023-12-07T10:35:40;1.73;;;1.50;;
3971;SDS011;2000;47.572;14.202;2023-12-07T10:38:09;2.87;;;1.10;;
3971;SDS011;2000;47.572;14.202;2023-12-07T10:40:36;3.70;;;1.37;;
3971;SDS011;2000;47.572;14.202;2023-12-07T10:43:05;2.20;;;1.20;;
3971;SDS011;2000;47.572;14.202;2023-12-07T10:45:33;2.93;;;1.70;;
3971;SDS011;2000;47.572;14.202;2023-12-07T10:48:10;2.37;;;1.27;;
3971;SDS011;2000;47.572;14.202;2023-12-07T10:50:42;0.83;;;0.83;;
3971;SDS011;2000;47.572;14.202;2023-12-07T10:53:21;1.57;;;1.20;;
3971;SDS011;2000;47.572;14.202;2023-12-07T10:55:56;2.83;;;0.77;;
3971;SDS011;2000;47.572;14.202;2023-12-07T10:58:26;2.13;;;1.00;;
3971;SDS011;2000;47.572;14.202;2023-12-07T11:00:55;2.10;;;1.27;;
3971;SDS011;2000;47.572;14.202;2023-12-07T11:03:24;2.30;;;1.97;;
3971;SDS011;2000;47.572;14.202;2023-12-07T11:05:52;2.37;;;1.50;;
3971;SDS011;2000;47.572;14.202;2023-12-07T11:08:41;0.93;;;0.90;;
3971;SDS011;2000;47.572;14.202;2023-12-07T11:11:12;1.63;;;1.30;;
3971;SDS011;2000;47.572;14.202;2023-12-07T11:13:52;1.13;;;1.03;;
3971;SDS011;2000;47.572;14.202;2023-12-07T11:16:28;2.83;;;1.53;;
3971;SDS011;2000;47.572;14.202;2023-12-07T11:18:59;4.97;;;1.30;;
3971;SDS011;2000;47.572;14.202;2023-12-07T11:21:26;1.63;;;1.23;;
3971;SDS011;2000;47.572;14.202;2023-12-07T11:23:54;4.20;;;1.50;;
3971;SDS011;2000;47.572;14.202;2023-12-07T11:26:24;1.50;;;1.40;;
3971;SDS011;2000;47.572;14.202;2023-12-07T11:28:51;1.93;;;1.50;;
3971;SDS011;2000;47.572;14.202;2023-12-07T11:31:19;1.53;;;0.90;;
3971;SDS011;2000;47.572;14.202;2023-12-07T11:33:46;3.10;;;1.70;;
3971;SDS011;2000;47.572;14.202;2023-12-07T11:36:14;3.73;;;2.00;;
3971;SDS011;2000;47.572;14.202;2023-12-07T11:41:33;2.43;;;1.77;;
3971;SDS011;2000;47.572;14.202;2023-12-07T11:44:00;1.40;;;1.17;;
3971;SDS011;2000;47.572;14.202;2023-12-07T11:46:28;2.57;;;1.50;;
3971;SDS011;2000;47.572;14.202;2023-12-07T11:48:55;4.37;;;2.87;;
3971;SDS011;2000;47.572;14.202;2023-12-07T11:51:22;3.90;;;2.40;;
3971;SDS011;2000;47.572;14.202;2023-12-07T11:53:49;27.50;;;13.30;;
3971;SDS011;2000;47.572;14.202;2023-12-07T11:56:17;26.93;;;13.87;;
3971;SDS011;2000;47.572;14.202;2023-12-07T11:58:48;34.60;;;13.80;;
3971;SDS011;2000;47.572;14.202;2023-12-07T12:01:16;9.47;;;4.33;;
3971;SDS011;2000;47.572;14.202;2023-12-07T12:03:44;8.53;;;3.77;;
3971;SDS011;2000;47.572;14.202;2023-12-07T12:06:10;10.17;;;3.57;;
3971;SDS011;2000;47.572;14.202;2023-12-07T12:08:41;5.50;;;2.80;;
3971;SDS011;2000;47.572;14.202;2023-12-07T12:11:10;2.77;;;1.83;;
3971;SDS011;2000;47.572;14.202;2023-12-07T12:13:37;2.10;;;1.87;;
3971;SDS011;2000;47.572;14.202;2023-12-07T12:16:05;148.77;;;53.40;;
3971;SDS011;2000;47.572;14.202;2023-12-07T12:18:33;89.63;;;35.20;;
3971;SDS011;2000;47.572;14.202;2023-12-07T12:21:01;28.93;;;12.00;;
3971;SDS011;2000;47.572;14.202;2023-12-07T12:23:28;58.93;;;22.40;;
3971;SDS011;2000;47.572;14.202;2023-12-07T12:25:56;106.77;;;46.93;;
3971;SDS011;2000;47.572;14.202;2023-12-07T12:28:23;37.93;;;18.83;;
3971;SDS011;2000;47.572;14.202;2023-12-07T12:30:51;5.10;;;4.10;;
3971;SDS011;2000;47.572;14.202;2023-12-07T12:33:19;10.50;;;5.53;;
3971;SDS011;2000;47.572;14.202;2023-12-07T12:35:46;6.23;;;3.17;;
3971;SDS011;2000;47.572;14.202;2023-12-07T12:38:13;6.07;;;3.87;;
3971;SDS011;2000;47.572;14.202;2023-12-07T12:40:53;1.57;;;1.30;;
3971;SDS011;2000;47.572;14.202;2023-12-07T12:43:21;1.97;;;1.23;;
3971;SDS011;2000;47.572;14.202;2023-12-07T12:45:49;3.80;;;1.90;;
3971;SDS011;2000;47.572;14.202;2023-12-07T12:48:32;3.57;;;1.73;;
3971;SDS011;2000;47.572;14.202;2023-12-07T12:51:07;2.70;;;1.27;;
3971;SDS011;2000;47.572;14.202;2023-12-07T12:53:35;2.90;;;1.30;;
3971;SDS011;2000;47.572;14.202;2023-12-07T12:56:03;6.80;;;2.90;;
3971;SDS011;2000;47.572;14.202;2023-12-07T12:58:30;21.47;;;6.67;;
3971;SDS011;2000;47.572;14.202;2023-12-07T13:00:57;3.03;;;1.93;;
3971;SDS011;2000;47.572;14.202;2023-12-07T13:03:25;25.80;;;6.80;;
3971;SDS011;2000;47.572;14.202;2023-12-07T13:05:52;25.20;;;6.77;;
3971;SDS011;2000;47.572;14.202;2023-12-07T13:08:20;2.00;;;1.30;;
3971;SDS011;2000;47.572;14.202;2023-12-07T13:10:47;2.60;;;1.50;;
3971;SDS011;2000;47.572;14.202;2023-12-07T13:13:14;3.13;;;1.60;;
3971;SDS011;2000;47.572;14.202;2023-12-07T13:15:42;1.70;;;1.03;;
3971;SDS011;2000;47.572;14.202;2023-12-07T13:18:09;1.20;;;1.00;;
3971;SDS011;2000;47.572;14.202;2023-12-07T13:20:36;3.20;;;1.57;;
3971;SDS011;2000;47.572;14.202;2023-12-07T13:23:06;5.47;;;1.93;;
3971;SDS011;2000;47.572;14.202;2023-12-07T13:25:34;4.27;;;2.30;;
3971;SDS011;2000;47.572;14.202;2023-12-07T13:28:01;5.27;;;1.93;;
3971;SDS011;2000;47.572;14.202;2023-12-07T13:30:28;9.70;;;3.30;;
3971;SDS011;2000;47.572;14.202;2023-12-07T13:33:00;8.50;;;2.50;;
3971;SDS011;2000;47.572;14.202;2023-12-07T13:35:43;4.97;;;2.00;;
3971;SDS011;2000;47.572;14.202;2023-12-07T13:38:11;6.80;;;2.00;;
3971;SDS011;2000;47.572;14.202;2023-12-07T13:40:38;51.90;;;11.97;;
3971;SDS011;2000;47.572;14.202;2023-12-07T13:43:05;10.90;;;3.97;;
3971;SDS011;2000;47.572;14.202;2023-12-07T13:45:33;4.63;;;1.63;;
3971;SDS011;2000;47.572;14.202;2023-12-07T13:48:00;3.37;;;1.47;;
3971;SDS011;2000;47.572;14.202;2023-12-07T13:50:27;2.77;;;1.50;;
3971;SDS011;2000;47.572;14.202;2023-12-07T13:52:54;6.80;;;3.10;;
3971;SDS011;2000;47.572;14.202;2023-12-07T13:55:21;5.93;;;4.20;;
3971;SDS011;2000;47.572;14.202;2023-12-07T13:57:50;6.87;;;4.00;;
3971;SDS011;2000;47.572;14.202;2023-12-07T14:00:20;4.53;;;2.90;;
3971;SDS011;2000;47.572;14.202;2023-12-07T14:02:47;4.67;;;3.13;;
3971;SDS011;2000;47.572;14.202;2023-12-07T14:05:14;3.97;;;2.37;;
3971;SDS011;2000;47.572;14.202;2023-12-07T14:07:44;2.97;;;2.20;;
3971;SDS011;2000;47.572;14.202;2023-12-07T14:10:12;1.30;;;1.20;;
3971;SDS011;2000;47.572;14.202;2023-12-07T14:12:39;1.00;;;0.83;;
3971;SDS011;2000;47.572;14.202;2023-12-07T14:15:06;15.50;;;4.00;;
3971;SDS011;2000;47.572;14.202;2023-12-07T14:17:34;15.17;;;4.20;;
3971;SDS011;2000;47.572;14.202;2023-12-07T14:20:16;15.67;;;5.20;;
3971;SDS011;2000;47.572;14.202;2023-12-07T14:23:03;8.40;;;4.30;;
3971;SDS011;2000;47.572;14.202;2023-12-07T14:25:34;32.37;;;7.27;;
3971;SDS011;2000;47.572;14.202;2023-12-07T14:28:01;23.80;;;4.83;;
3971;SDS011;2000;47.572;14.202;2023-12-07T14:30:28;40.13;;;11.80;;
3971;SDS011;2000;47.572;14.202;2023-12-07T14:32:55;46.03;;;12.60;;
3971;SDS011;2000;47.572;14.202;2023-12-07T14:35:24;21.50;;;8.10;;
3971;SDS011;2000;47.572;14.202;2023-12-07T14:37:51;16.20;;;4.73;;
3971;SDS011;2000;47.572;14.202;2023-12-07T14:40:18;12.97;;;4.40;;
3971;SDS011;2000;47.572;14.202;2023-12-07T14:42:45;6.23;;;3.97;;
3971;SDS011;2000;47.572;14.202;2023-12-07T14:45:13;16.27;;;6.73;;
3971;SDS011;2000;47.572;14.202;2023-12-07T14:47:42;9.30;;;5.33;;
3971;SDS011;2000;47.572;14.202;2023-12-07T14:50:09;9.00;;;4.73;;
3971;SDS011;2000;47.572;14.202;2023-12-07T14:52:36;5.13;;;3.27;;
3971;SDS011;2000;47.572;14.202;2023-12-07T14:55:04;5.43;;;2.80;;
3971;SDS011;2000;47.572;14.202;2023-12-07T14:57:32;2.77;;;2.17;;
3971;SDS011;2000;47.572;14.202;2023-12-07T15:00:00;11.10;;;5.30;;
3971;SDS011;2000;47.572;14.202;2023-12-07T15:02:27;11.47;;;6.80;;
3971;SDS011;2000;47.572;14.202;2023-12-07T15:04:55;22.30;;;7.47;;
3971;SDS011;2000;47.572;14.202;2023-12-07T15:07:22;6.40;;;3.87;;
3971;SDS011;2000;47.572;14.202;2023-12-07T15:09:48;17.43;;;5.30;;
3971;SDS011;2000;47.572;14.202;2023-12-07T15:12:18;9.87;;;3.30;;
3971;SDS011;2000;47.572;14.202;2023-12-07T15:14:46;11.50;;;4.70;;
3971;SDS011;2000;47.572;14.202;2023-12-07T15:17:14;12.07;;;5.30;;